Time;durP1;ratioP1;P1;durP2;ratioP2;P2;SDS_P1;SDS_P2;PMS_P1;PMS_P2;Temp;Humidity;BMP_temperature;BMP_pressure;BME280_temperature;BME280_humidity;BME280_pressure;Samples;Min_cycle;Max_cycle;Signal;HPM_P1;HPM_P2
2022/01/04 00:01:47;;;;;;;1.10;1.00;;;9.90;97.60;;;;;;9180309;19;20491;-76
2022/01/04 00:04:52;;;;;;;1.63;1.00;;;9.90;97.50;;;;;;9181399;19;20022;-75
2022/01/04 00:07:57;;;;;;;2.38;1.00;;;9.90;97.60;;;;;;9181695;19;20035;-75
2022/01/04 00:11:14;;;;;;;1.00;0.90;;;9.90;97.50;;;;;;9180723;19;20028;-76
2022/01/04 00:14:20;;;;;;;1.45;1.00;;;9.80;97.50;;;;;;9182473;19;20022;-75
2022/01/04 00:17:25;;;;;;;2.08;1.20;;;9.80;97.50;;;;;;9178954;19;20015;-77
2022/01/04 00:20:30;;;;;;;2.00;1.02;;;9.80;97.50;;;;;;9178354;19;20014;-75
2022/01/04 00:23:35;;;;;;;1.88;1.10;;;9.80;97.50;;;;;;9180302;19;20011;-75
2022/01/04 00:26:43;;;;;;;1.38;0.80;;;9.80;97.50;;;;;;9177371;19;20010;-76
2022/01/04 00:29:53;;;;;;;1.65;1.00;;;9.80;97.50;;;;;;9178546;19;20431;-75
2022/01/04 00:32:58;;;;;;;1.90;0.98;;;9.70;97.50;;;;;;9177322;19;20015;-75
2022/01/04 00:36:03;;;;;;;1.17;0.80;;;9.70;97.50;;;;;;9176766;19;20025;-75
2022/01/04 00:39:08;;;;;;;2.28;0.90;;;9.70;97.50;;;;;;9178230;19;20011;-75
2022/01/04 00:42:16;;;;;;;2.72;1.13;;;9.70;97.50;;;;;;9178886;19;20018;-75
2022/01/04 00:45:21;;;;;;;2.45;1.10;;;9.70;97.50;;;;;;9179608;19;20041;-76
2022/01/04 00:51:54;;;;;;;1.65;0.95;;;9.70;97.50;;;;;;9176826;19;20022;-75
2022/01/04 00:54:59;;;;;;;1.35;0.95;;;9.70;97.60;;;;;;9175424;19;20033;-75
2022/01/04 00:58:08;;;;;;;1.70;0.90;;;9.60;97.60;;;;;;9179254;19;20018;-76
2022/01/04 01:01:13;;;;;;;1.40;1.00;;;9.70;97.60;;;;;;9176499;19;20023;-76
2022/01/04 01:04:18;;;;;;;1.50;1.00;;;9.70;97.70;;;;;;9178168;19;20029;-76
2022/01/04 01:07:23;;;;;;;1.27;0.88;;;9.60;97.60;;;;;;9176881;19;20668;-75
2022/01/04 01:10:43;;;;;;;1.88;1.13;;;9.60;97.70;;;;;;9179137;19;20022;-76
2022/01/04 01:13:51;;;;;;;1.88;1.23;;;9.70;97.70;;;;;;9177919;19;20015;-75
2022/01/04 01:16:56;;;;;;;2.05;1.20;;;9.60;97.70;;;;;;9177856;19;20037;-77
2022/01/04 01:20:02;;;;;;;1.95;1.15;;;9.70;97.70;;;;;;9179180;19;20030;-75
2022/01/04 01:23:07;;;;;;;1.88;1.10;;;9.70;97.80;;;;;;9178792;19;20472;-76
2022/01/04 01:26:12;;;;;;;2.97;0.90;;;9.70;97.70;;;;;;9179809;19;20026;-76
2022/01/04 01:29:20;;;;;;;2.15;1.10;;;9.70;97.80;;;;;;9178714;19;20011;-75
2022/01/04 01:32:25;;;;;;;1.15;0.85;;;9.70;97.80;;;;;;9178242;19;20107;-75
2022/01/04 01:35:30;;;;;;;1.30;0.93;;;9.70;97.80;;;;;;9179935;19;20086;-75
2022/01/04 01:38:36;;;;;;;2.63;1.35;;;9.70;97.80;;;;;;9180281;19;20082;-74
2022/01/04 01:41:41;;;;;;;1.23;0.90;;;9.70;97.70;;;;;;9177724;19;20010;-75
2022/01/04 01:44:49;;;;;;;2.25;1.13;;;9.70;97.70;;;;;;9177785;19;20030;-75
2022/01/04 01:47:54;;;;;;;2.25;1.27;;;9.70;97.70;;;;;;9178433;19;20078;-74
2022/01/04 01:50:59;;;;;;;1.50;0.95;;;9.70;97.70;;;;;;9175061;19;20784;-73
2022/01/04 01:54:05;;;;;;;1.13;0.88;;;9.70;97.80;;;;;;9171456;19;20015;-72
2022/01/04 01:57:12;;;;;;;1.85;1.10;;;9.70;97.80;;;;;;9174135;19;20109;-72
2022/01/04 02:00:22;;;;;;;2.50;1.25;;;9.70;97.80;;;;;;9175344;19;20019;-72
2022/01/04 02:03:27;;;;;;;1.30;0.93;;;9.70;97.80;;;;;;9171602;19;20019;-72
2022/01/04 02:06:32;;;;;;;1.80;1.13;;;9.70;97.90;;;;;;9174945;19;20019;-73
2022/01/04 02:09:41;;;;;;;1.20;1.05;;;9.80;97.90;;;;;;9173905;19;20018;-73
2022/01/04 02:12:49;;;;;;;0.90;0.90;;;9.80;97.90;;;;;;9175950;19;20019;-73
2022/01/04 02:15:57;;;;;;;1.38;0.90;;;9.80;97.90;;;;;;9174227;19;20018;-73
2022/01/04 02:19:02;;;;;;;1.42;1.10;;;9.80;97.90;;;;;;9176119;19;20022;-73
2022/01/04 02:22:10;;;;;;;2.00;1.27;;;9.80;97.90;;;;;;9174161;19;20364;-73
2022/01/04 02:25:15;;;;;;;2.10;1.17;;;9.80;97.90;;;;;;9176204;19;20018;-73
2022/01/04 02:28:21;;;;;;;1.67;1.00;;;9.80;97.90;;;;;;9176625;19;20015;-73
2022/01/04 02:31:26;;;;;;;1.85;1.23;;;9.80;97.90;;;;;;9174895;19;20030;-73
2022/01/04 02:34:32;;;;;;;1.65;1.02;;;9.80;97.90;;;;;;9174826;19;20369;-73
2022/01/04 02:37:39;;;;;;;1.20;1.00;;;9.80;97.80;;;;;;9178210;19;20014;-73
2022/01/04 02:40:45;;;;;;;2.13;1.05;;;9.80;97.80;;;;;;9173052;19;20025;-73
2022/01/04 02:43:49;;;;;;;1.70;1.00;;;9.80;97.80;;;;;;9174533;19;20494;-73
2022/01/04 02:46:54;;;;;;;1.88;1.00;;;9.80;97.90;;;;;;9172548;19;20019;-73
2022/01/04 02:50:00;;;;;;;1.70;1.05;;;9.80;97.90;;;;;;9173880;19;20471;-73
2022/01/04 02:53:07;;;;;;;1.83;1.05;;;9.80;97.90;;;;;;9170288;19;20459;-73
2022/01/04 02:56:13;;;;;;;2.40;1.42;;;9.80;97.90;;;;;;9179701;19;20351;-72
2022/01/04 02:59:18;;;;;;;1.38;1.00;;;9.80;97.90;;;;;;9182908;19;20021;-72
2022/01/04 03:02:23;;;;;;;2.33;1.05;;;9.80;97.90;;;;;;9181577;19;20056;-73
2022/01/04 03:05:29;;;;;;;1.38;0.80;;;9.90;97.90;;;;;;9180629;19;20030;-72
2022/01/04 03:08:36;;;;;;;1.30;1.00;;;9.80;97.90;;;;;;9181486;19;20015;-72
2022/01/04 03:11:41;;;;;;;2.45;1.20;;;9.80;97.90;;;;;;9181642;19;20015;-73
2022/01/04 03:14:46;;;;;;;1.77;0.90;;;9.90;97.90;;;;;;9181824;19;20025;-73
2022/01/04 03:17:51;;;;;;;1.13;1.00;;;9.80;97.90;;;;;;9181303;19;20116;-72
2022/01/04 03:20:56;;;;;;;1.08;0.82;;;9.80;97.90;;;;;;9183387;19;20021;-73
2022/01/04 03:24:04;;;;;;;0.95;0.80;;;9.80;97.90;;;;;;9184088;19;20029;-73
2022/01/04 03:27:10;;;;;;;1.50;0.90;;;9.80;97.90;;;;;;9182344;19;20011;-73
2022/01/04 03:30:15;;;;;;;1.35;0.80;;;9.80;97.90;;;;;;9180063;19;20019;-73
2022/01/04 03:33:20;;;;;;;2.25;1.10;;;9.80;97.90;;;;;;9182054;19;20525;-73
2022/01/04 03:36:26;;;;;;;1.00;0.80;;;9.80;97.90;;;;;;9181793;19;20043;-73
2022/01/04 03:39:33;;;;;;;0.98;0.70;;;9.80;97.90;;;;;;9182529;19;20499;-72
2022/01/04 03:42:39;;;;;;;2.03;0.90;;;9.80;97.90;;;;;;9184378;19;20093;-73
2022/01/04 03:45:44;;;;;;;1.08;0.93;;;9.80;97.90;;;;;;9179611;19;20023;-73
2022/01/04 03:48:50;;;;;;;1.45;0.90;;;9.80;97.90;;;;;;9180349;19;20067;-73
2022/01/04 03:51:55;;;;;;;1.40;0.90;;;9.80;97.90;;;;;;9178164;19;20014;-73
2022/01/04 03:55:02;;;;;;;1.25;0.90;;;9.80;97.90;;;;;;9174076;19;20028;-73
2022/01/04 03:58:07;;;;;;;1.83;0.90;;;9.80;97.90;;;;;;9178865;19;20628;-73
2022/01/04 04:01:12;;;;;;;1.05;0.70;;;9.80;97.80;;;;;;9179524;19;20029;-73
2022/01/04 04:04:19;;;;;;;1.75;0.90;;;9.70;97.80;;;;;;9179294;19;20498;-73
2022/01/04 04:07:24;;;;;;;0.95;0.73;;;9.70;97.90;;;;;;9177542;19;20018;-73
2022/01/04 04:10:31;;;;;;;1.20;0.88;;;9.70;97.90;;;;;;9180431;19;20395;-73
2022/01/04 04:13:36;;;;;;;1.50;0.70;;;9.70;97.90;;;;;;9179686;19;20021;-73
2022/01/04 04:16:41;;;;;;;0.70;0.70;;;9.70;97.90;;;;;;9182365;19;20098;-73
2022/01/04 04:19:46;;;;;;;1.00;0.90;;;9.70;97.90;;;;;;9179685;19;20014;-73
2022/01/04 04:22:51;;;;;;;2.05;0.80;;;9.70;97.90;;;;;;9179845;19;20022;-73
2022/01/04 04:26:00;;;;;;;1.48;1.00;;;9.70;97.90;;;;;;9180470;19;20029;-73
2022/01/04 04:29:05;;;;;;;1.25;0.90;;;9.70;97.90;;;;;;9179966;19;20116;-73
2022/01/04 04:32:11;;;;;;;1.42;1.00;;;9.70;97.90;;;;;;9180828;19;20021;-73
2022/01/04 04:35:17;;;;;;;1.75;0.70;;;9.70;97.80;;;;;;9178602;19;20025;-73
2022/01/04 04:38:22;;;;;;;1.98;0.93;;;9.70;97.90;;;;;;9179128;19;20033;-73
2022/01/04 04:41:29;;;;;;;1.23;1.00;;;9.70;97.80;;;;;;9179043;19;20057;-73
2022/01/04 04:44:34;;;;;;;2.22;0.90;;;9.70;97.80;;;;;;9178469;19;20502;-74
2022/01/04 04:47:39;;;;;;;1.65;1.05;;;9.70;97.80;;;;;;9180755;19;20032;-73
2022/01/04 04:50:45;;;;;;;0.80;0.80;;;9.70;97.80;;;;;;9177775;19;20475;-73
2022/01/04 04:53:50;;;;;;;1.05;0.80;;;9.70;97.80;;;;;;9176614;19;20038;-74
2022/01/04 04:56:58;;;;;;;1.92;1.00;;;9.60;97.80;;;;;;9177282;19;20078;-74
2022/01/04 05:00:03;;;;;;;1.75;0.93;;;9.60;97.80;;;;;;9179047;19;20394;-74
2022/01/04 05:03:08;;;;;;;1.48;1.02;;;9.60;97.80;;;;;;9176065;19;20018;-73
2022/01/04 05:06:13;;;;;;;1.65;0.80;;;9.60;97.90;;;;;;9176091;19;20030;-74
2022/01/04 05:09:18;;;;;;;1.00;0.80;;;9.60;97.90;;;;;;9176460;19;20530;-74
2022/01/04 05:12:25;;;;;;;1.63;1.10;;;9.60;97.90;;;;;;9178628;19;20019;-71
2022/01/04 05:15:30;;;;;;;1.10;0.88;;;9.60;97.90;;;;;;9178363;19;20010;-71
2022/01/04 05:18:36;;;;;;;0.98;0.65;;;9.60;97.80;;;;;;9178540;19;20033;-71
2022/01/04 05:21:41;;;;;;;2.25;1.33;;;9.60;97.90;;;;;;9176441;19;20461;-71
2022/01/04 05:24:46;;;;;;;1.33;0.90;;;9.60;97.80;;;;;;9177061;19;20014;-71
2022/01/04 05:27:54;;;;;;;2.17;1.23;;;9.60;97.90;;;;;;9177975;19;20064;-71
2022/01/04 05:31:00;;;;;;;1.42;1.00;;;9.60;97.80;;;;;;9177612;19;20017;-71
2022/01/04 05:34:05;;;;;;;1.13;0.93;;;9.50;97.80;;;;;;9175297;19;20015;-72
2022/01/04 05:37:10;;;;;;;1.27;1.13;;;9.60;97.90;;;;;;9175971;19;20030;-71
2022/01/04 05:40:15;;;;;;;1.83;1.20;;;9.50;97.80;;;;;;9178279;19;20113;-71
2022/01/04 05:43:22;;;;;;;2.25;1.05;;;9.50;97.80;;;;;;9178062;19;20344;-72
2022/01/04 05:46:28;;;;;;;1.33;1.02;;;9.50;97.80;;;;;;9178127;19;20018;-72
2022/01/04 05:49:33;;;;;;;1.60;1.00;;;9.50;97.80;;;;;;9176177;19;20044;-71
2022/01/04 05:52:38;;;;;;;1.30;1.10;;;9.50;97.80;;;;;;9176905;19;20018;-71
2022/01/04 05:55:44;;;;;;;1.80;1.00;;;9.50;97.90;;;;;;9174735;19;20015;-71
2022/01/04 05:58:51;;;;;;;1.20;0.98;;;9.50;97.90;;;;;;9176413;19;20022;-72
2022/01/04 06:01:56;;;;;;;1.75;1.15;;;9.40;97.80;;;;;;9176321;19;20022;-71
2022/01/04 06:05:01;;;;;;;1.27;1.17;;;9.40;97.80;;;;;;9176678;19;20010;-71
2022/01/04 06:08:07;;;;;;;1.23;1.00;;;9.40;97.80;;;;;;9174645;19;20043;-71
2022/01/04 06:11:29;;;;;;;1.20;1.00;;;9.40;97.90;;;;;;9174168;19;20021;-71
2022/01/04 06:17:54;;;;;;;1.83;1.17;;;9.40;97.80;;;;;;9178290;19;20010;-72
2022/01/04 06:21:02;;;;;;;1.20;1.10;;;9.40;97.90;;;;;;9175478;19;20117;-71
2022/01/04 06:24:07;;;;;;;1.70;1.27;;;9.40;97.80;;;;;;9173551;19;20015;-72
2022/01/04 06:27:13;;;;;;;1.52;1.13;;;9.40;97.90;;;;;;9172499;19;20082;-71
2022/01/04 06:30:22;;;;;;;1.17;1.00;;;9.30;97.80;;;;;;9175627;19;20622;-71
2022/01/04 06:33:28;;;;;;;2.67;1.10;;;9.30;97.80;;;;;;9183180;19;20038;-71
2022/01/04 06:36:33;;;;;;;1.38;1.20;;;9.30;97.80;;;;;;9180876;19;20018;-72
2022/01/04 06:39:38;;;;;;;1.70;1.20;;;9.30;97.90;;;;;;9181687;19;20010;-72
2022/01/04 06:42:43;;;;;;;2.90;1.30;;;9.30;97.90;;;;;;9181355;19;20018;-73
2022/01/04 06:45:51;;;;;;;2.05;1.30;;;9.30;97.90;;;;;;9183301;19;20021;-71
2022/01/04 06:48:56;;;;;;;2.70;1.35;;;9.30;97.90;;;;;;9181533;19;20492;-72
2022/01/04 06:52:01;;;;;;;2.60;1.27;;;9.30;97.90;;;;;;9182945;19;20026;-73
2022/01/04 06:55:06;;;;;;;1.42;1.20;;;9.30;97.90;;;;;;9179868;19;20014;-71
2022/01/04 06:58:11;;;;;;;2.42;1.20;;;9.30;97.90;;;;;;9183483;19;20019;-71
2022/01/04 07:01:19;;;;;;;2.88;1.48;;;9.30;97.90;;;;;;9181398;19;20376;-71
2022/01/04 07:04:24;;;;;;;1.30;1.20;;;9.30;97.90;;;;;;9181621;19;20064;-71
2022/01/04 07:07:30;;;;;;;1.25;1.10;;;9.30;97.90;;;;;;9181577;19;20370;-71
2022/01/04 07:10:35;;;;;;;1.58;1.20;;;9.30;97.90;;;;;;9182368;19;20018;-71
2022/01/04 07:13:39;;;;;;;1.40;1.25;;;9.30;97.90;;;;;;9182738;19;20022;-71
2022/01/04 07:16:47;;;;;;;1.73;1.30;;;9.30;97.90;;;;;;9175305;19;20025;-72
2022/01/04 07:19:52;;;;;;;1.95;1.23;;;9.30;97.90;;;;;;9172604;19;20471;-72
2022/01/04 07:22:57;;;;;;;1.50;1.13;;;9.20;97.90;;;;;;9171532;19;20019;-73
2022/01/04 07:26:02;;;;;;;1.95;1.38;;;9.20;97.90;;;;;;9173061;19;20030;-72
2022/01/04 07:29:07;;;;;;;1.60;1.20;;;9.20;97.90;;;;;;9172652;19;20020;-72
2022/01/04 07:32:15;;;;;;;3.08;1.35;;;9.20;97.90;;;;;;9173645;19;20019;-72
2022/01/04 07:35:20;;;;;;;1.50;1.30;;;9.20;97.90;;;;;;9175433;19;20508;-72
2022/01/04 07:38:25;;;;;;;1.52;1.20;;;9.20;97.90;;;;;;9179396;19;20013;-72
2022/01/04 07:41:30;;;;;;;2.30;1.20;;;9.20;97.90;;;;;;9177428;19;20049;-73
2022/01/04 07:44:35;;;;;;;2.25;1.30;;;9.20;97.90;;;;;;9176695;19;20030;-71
2022/01/04 07:47:44;;;;;;;1.67;1.35;;;9.20;97.90;;;;;;9175505;19;20020;-73
2022/01/04 07:50:49;;;;;;;3.03;1.40;;;9.20;97.90;;;;;;9177257;19;20044;-73
2022/01/04 07:53:59;;;;;;;1.75;1.30;;;9.20;98.00;;;;;;9172549;19;20137;-72
2022/01/04 07:57:04;;;;;;;1.45;1.35;;;9.20;98.00;;;;;;9176801;19;20014;-72
2022/01/04 08:00:11;;;;;;;2.13;1.30;;;9.20;98.00;;;;;;9178677;19;20015;-72
2022/01/04 08:03:21;;;;;;;3.05;1.50;;;9.20;98.00;;;;;;9177515;19;20022;-72
2022/01/04 08:06:32;;;;;;;2.17;1.42;;;9.20;98.00;;;;;;9175494;19;20015;-73
2022/01/04 08:09:37;;;;;;;1.70;1.30;;;9.20;98.00;;;;;;9176660;19;20022;-72
2022/01/04 08:12:43;;;;;;;1.40;1.30;;;9.20;98.00;;;;;;9177408;19;20018;-73
2022/01/04 08:15:48;;;;;;;2.67;1.38;;;9.20;98.00;;;;;;9178067;19;20033;-72
2022/01/04 08:18:55;;;;;;;1.98;1.40;;;9.20;98.00;;;;;;9177674;19;20367;-72
2022/01/04 08:22:10;;;;;;;1.48;1.33;;;9.20;98.00;;;;;;9180239;19;20014;-73
2022/01/04 08:25:15;;;;;;;1.45;1.27;;;9.20;98.00;;;;;;9179350;19;20025;-72
2022/01/04 08:28:20;;;;;;;1.45;1.33;;;9.20;98.00;;;;;;9178552;19;20015;-72
2022/01/04 08:31:26;;;;;;;1.65;1.33;;;9.20;98.00;;;;;;9177730;19;20014;-72
2022/01/04 08:34:34;;;;;;;1.73;1.30;;;9.20;98.00;;;;;;9179475;19;20019;-72
2022/01/04 08:37:39;;;;;;;1.42;1.33;;;9.20;98.00;;;;;;9178933;19;20052;-73
2022/01/04 08:40:44;;;;;;;2.15;1.50;;;9.10;98.00;;;;;;9177886;19;20070;-71
2022/01/04 08:43:49;;;;;;;1.40;1.30;;;9.20;98.10;;;;;;9180447;19;20021;-72
2022/01/04 08:46:54;;;;;;;2.28;1.40;;;9.20;98.10;;;;;;9180254;19;20479;-72
2022/01/04 08:50:02;;;;;;;1.58;1.38;;;9.20;98.10;;;;;;9180986;19;20026;-73
2022/01/04 08:53:10;;;;;;;2.45;1.38;;;9.20;98.10;;;;;;9173475;19;20021;-72
2022/01/04 08:56:19;;;;;;;1.80;1.30;;;9.20;98.10;;;;;;9179291;19;20010;-73
2022/01/04 08:59:25;;;;;;;1.40;1.30;;;9.20;98.10;;;;;;9177627;19;20022;-73
2022/01/04 09:02:30;;;;;;;2.53;1.40;;;9.20;98.10;;;;;;9177722;19;20022;-72
2022/01/04 09:05:38;;;;;;;1.60;1.30;;;9.20;98.10;;;;;;9180684;19;20014;-73
2022/01/04 09:08:43;;;;;;;2.20;1.60;;;9.20;98.10;;;;;;9178545;19;20491;-74
2022/01/04 09:11:48;;;;;;;1.55;1.30;;;9.30;98.10;;;;;;9177827;19;20014;-73
2022/01/04 09:15:05;;;;;;;2.60;1.50;;;9.30;98.10;;;;;;9179102;19;20746;-73
2022/01/04 09:21:52;;;;;;;1.77;1.40;;;9.30;98.10;;;;;;9177498;19;20517;-73
2022/01/04 09:24:57;;;;;;;1.63;1.48;;;9.30;98.10;;;;;;9179253;19;20538;-73
2022/01/04 09:28:02;;;;;;;1.60;1.35;;;9.30;98.10;;;;;;9178456;19;20018;-73
2022/01/04 09:31:08;;;;;;;2.53;1.40;;;9.30;98.10;;;;;;9177179;19;20153;-71
2022/01/04 09:34:13;;;;;;;1.65;1.42;;;9.30;98.10;;;;;;9175492;19;20487;-70
2022/01/04 09:37:20;;;;;;;2.10;1.58;;;9.30;98.10;;;;;;9176947;19;20029;-70
2022/01/04 09:40:26;;;;;;;1.98;1.27;;;9.40;98.10;;;;;;9175157;19;20612;-71
2022/01/04 09:43:31;;;;;;;1.50;1.38;;;9.40;98.10;;;;;;9176228;19;20010;-70
2022/01/04 09:46:36;;;;;;;1.33;1.23;;;9.40;98.10;;;;;;9173489;19;20007;-71
2022/01/04 09:49:42;;;;;;;1.80;1.40;;;9.40;98.20;;;;;;9174947;19;20022;-71
2022/01/04 09:52:51;;;;;;;1.40;1.20;;;9.40;98.10;;;;;;9174143;19;20484;-72
2022/01/04 09:55:58;;;;;;;1.30;1.20;;;9.40;98.20;;;;;;9175357;19;20022;-70
2022/01/04 09:59:03;;;;;;;1.42;1.20;;;9.40;98.20;;;;;;9174884;19;20373;-71
2022/01/04 10:02:17;;;;;;;1.70;1.38;;;9.40;98.20;;;;;;9174943;19;20102;-71
2022/01/04 10:05:25;;;;;;;1.95;1.35;;;9.50;98.20;;;;;;9170081;19;20538;-71
2022/01/04 10:08:34;;;;;;;1.63;1.10;;;9.50;98.20;;;;;;9171264;19;20019;-71
2022/01/04 10:11:42;;;;;;;2.17;1.20;;;9.50;98.20;;;;;;9171346;19;20043;-73
2022/01/04 10:14:48;;;;;;;1.85;1.30;;;9.50;98.20;;;;;;9173038;19;20014;-70
2022/01/04 10:17:57;;;;;;;1.40;1.30;;;9.50;98.20;;;;;;9177211;19;20037;-72
2022/01/04 10:21:17;;;;;;;1.63;1.30;;;9.50;98.20;;;;;;9174782;19;20026;-71
2022/01/04 10:24:24;;;;;;;1.10;1.00;;;9.50;98.40;;;;;;9174931;19;20026;-73
2022/01/04 10:27:32;;;;;;;1.45;1.20;;;9.50;98.20;;;;;;9174379;19;20021;-72
2022/01/04 10:30:39;;;;;;;1.30;1.20;;;9.50;98.20;;;;;;9174573;19;20014;-72
2022/01/04 10:33:45;;;;;;;1.50;1.40;;;9.50;98.20;;;;;;9172650;19;20116;-72
2022/01/04 10:36:50;;;;;;;1.55;1.23;;;9.60;98.20;;;;;;9171544;19;20611;-72
2022/01/04 10:40:08;;;;;;;1.88;1.30;;;9.60;98.20;;;;;;9175254;19;20022;-72
2022/01/04 10:43:15;;;;;;;1.70;1.10;;;9.60;98.20;;;;;;9174675;19;20356;-73
2022/01/04 10:46:31;;;;;;;1.60;1.20;;;9.60;98.20;;;;;;9174667;19;20014;-73
2022/01/04 10:49:43;;;;;;;1.30;1.20;;;9.70;98.30;;;;;;9173878;19;20157;-74
2022/01/04 10:52:48;;;;;;;1.27;1.15;;;9.70;98.30;;;;;;9173484;19;20026;-73
2022/01/04 10:56:00;;;;;;;1.30;1.20;;;9.80;98.30;;;;;;9173391;19;20379;-73
2022/01/04 10:59:08;;;;;;;1.40;1.30;;;9.80;98.30;;;;;;9170348;19;20025;-74
2022/01/04 11:02:13;;;;;;;1.58;1.30;;;9.80;98.30;;;;;;9168263;19;20025;-74
2022/01/04 11:05:21;;;;;;;2.58;1.42;;;9.90;98.40;;;;;;9167729;19;20033;-73
2022/01/04 11:08:26;;;;;;;1.80;1.30;;;9.90;98.30;;;;;;9167408;19;20037;-71
2022/01/04 11:11:34;;;;;;;1.20;1.10;;;9.90;98.30;;;;;;9172126;19;20018;-73
2022/01/04 11:14:39;;;;;;;1.33;1.10;;;10.00;98.30;;;;;;9168351;19;20345;-69
2022/01/04 11:17:44;;;;;;;1.55;1.25;;;10.00;98.20;;;;;;9178983;19;20010;-70
2022/01/04 11:20:51;;;;;;;1.65;1.23;;;10.00;98.20;;;;;;9175557;19;20018;-70
2022/01/04 11:23:57;;;;;;;1.77;1.00;;;10.10;98.20;;;;;;9177610;19;20052;-71
2022/01/04 11:27:05;;;;;;;1.42;1.10;;;10.10;98.20;;;;;;9176382;19;20025;-70
2022/01/04 11:30:30;;;;;;;1.00;0.93;;;10.10;98.20;;;;;;9176290;19;20021;-70
2022/01/04 11:33:49;;;;;;;1.00;0.90;;;10.10;98.20;;;;;;9176540;19;20021;-70
2022/01/04 11:36:55;;;;;;;1.40;1.05;;;10.10;98.10;;;;;;9176339;19;20493;-70
2022/01/04 11:40:00;;;;;;;1.42;1.15;;;10.10;98.10;;;;;;9175242;19;20015;-69
2022/01/04 11:43:27;;;;;;;1.50;1.20;;;10.10;98.20;;;;;;9177516;19;20010;-72
2022/01/04 11:46:38;;;;;;;1.23;1.02;;;10.20;98.10;;;;;;9175510;19;20019;-70
2022/01/04 11:50:10;;;;;;;1.50;1.00;;;10.10;98.10;;;;;;9177515;19;20017;-70
2022/01/04 11:53:15;;;;;;;1.27;0.98;;;10.20;98.10;;;;;;9178288;19;20022;-71
2022/01/04 11:56:20;;;;;;;1.15;0.90;;;10.20;98.10;;;;;;9179526;19;20018;-70
2022/01/04 11:59:27;;;;;;;1.42;1.00;;;10.20;98.10;;;;;;9178469;19;20015;-72
2022/01/04 12:02:36;;;;;;;0.98;0.98;;;10.20;98.10;;;;;;9178305;19;20019;-71
2022/01/04 12:06:02;;;;;;;2.90;1.10;;;10.20;98.10;;;;;;9178063;19;20011;-70
2022/01/04 12:09:29;;;;;;;1.25;0.68;;;10.20;98.00;;;;;;9177323;19;20020;-71
2022/01/04 12:12:58;;;;;;;0.80;0.40;;;10.20;98.00;;;;;;9177765;19;20035;-70
2022/01/04 12:16:08;;;;;;;0.80;0.40;;;10.20;97.90;;;;;;9178680;19;20015;-69
2022/01/04 12:19:15;;;;;;;0.20;0.20;;;10.20;97.90;;;;;;9180703;19;20038;-70
2022/01/04 12:22:38;;;;;;;0.95;0.30;;;10.10;97.90;;;;;;9181070;19;20463;-70
2022/01/04 12:25:43;;;;;;;0.73;0.30;;;10.10;97.80;;;;;;9182075;19;20018;-69
2022/01/04 12:29:09;;;;;;;0.60;0.20;;;10.00;97.80;;;;;;9178936;19;20376;-69
2022/01/04 12:32:24;;;;;;;0.20;0.17;;;10.00;97.80;;;;;;9180096;19;20010;-71
2022/01/04 12:35:48;;;;;;;0.70;0.30;;;10.00;97.80;;;;;;9179851;19;20022;-70
2022/01/04 12:38:57;;;;;;;0.25;0.20;;;9.90;97.80;;;;;;9180938;19;20014;-70
2022/01/04 12:42:07;;;;;;;0.50;0.40;;;9.90;97.80;;;;;;9177700;19;20019;-69
2022/01/04 12:45:15;;;;;;;0.38;0.20;;;9.90;97.80;;;;;;9181378;19;20018;-71
2022/01/04 12:48:20;;;;;;;0.28;0.13;;;9.90;97.70;;;;;;9180135;19;20015;-69
2022/01/04 12:51:27;;;;;;;0.60;0.10;;;9.80;97.80;;;;;;9178962;19;20018;-69
2022/01/04 12:54:37;;;;;;;0.63;0.25;;;9.80;97.70;;;;;;9173716;19;20010;-69
2022/01/04 12:57:42;;;;;;;1.08;0.40;;;9.70;97.70;;;;;;9178487;19;20018;-70
2022/01/04 13:00:53;;;;;;;0.80;0.45;;;9.70;97.70;;;;;;9176033;19;20018;-71
2022/01/04 13:03:59;;;;;;;1.00;0.30;;;9.70;97.60;;;;;;9176638;19;20074;-70
2022/01/04 13:07:07;;;;;;;0.60;0.40;;;9.60;97.60;;;;;;9172221;19;20022;-71
2022/01/04 13:10:18;;;;;;;1.20;0.60;;;9.60;97.60;;;;;;9167860;19;20026;-71
2022/01/04 13:13:28;;;;;;;0.80;0.30;;;9.50;97.60;;;;;;9167840;19;20015;-72
2022/01/04 13:16:34;;;;;;;0.68;0.40;;;9.50;97.60;;;;;;9169132;19;20109;-71
2022/01/04 13:19:42;;;;;;;0.52;0.20;;;9.50;97.60;;;;;;9168973;19;20011;-70
2022/01/04 13:22:47;;;;;;;0.50;0.17;;;9.40;97.50;;;;;;9169791;19;20444;-71
2022/01/04 13:26:02;;;;;;;0.90;0.30;;;9.40;97.50;;;;;;9168646;19;20022;-71
2022/01/04 13:29:07;;;;;;;0.25;0.10;;;9.30;97.50;;;;;;9169221;19;20018;-72
2022/01/04 13:32:13;;;;;;;0.75;0.10;;;9.20;97.40;;;;;;9169857;19;20018;-71
2022/01/04 13:35:21;;;;;;;0.38;0.08;;;9.10;97.30;;;;;;9168244;19;20049;-69
2022/01/04 13:38:28;;;;;;;0.00;0.00;;;9.00;97.30;;;;;;9167962;19;20534;-70
2022/01/04 13:41:39;;;;;;;0.30;0.10;;;9.00;97.30;;;;;;9166221;19;20075;-70
2022/01/04 13:44:56;;;;;;;0.45;0.05;;;8.90;97.30;;;;;;9167479;19;20029;-70
2022/01/04 13:48:03;;;;;;;0.30;0.15;;;8.80;97.30;;;;;;9169708;19;20015;-72
2022/01/04 13:51:10;;;;;;;0.88;0.10;;;8.70;97.40;;;;;;9166530;19;20586;-70
2022/01/04 13:54:18;;;;;;;0.20;0.10;;;8.70;97.40;;;;;;9165804;19;20653;-70
2022/01/04 13:57:32;;;;;;;0.40;0.25;;;8.60;97.40;;;;;;9168912;19;20019;-69
2022/01/04 14:00:38;;;;;;;0.30;0.20;;;8.60;97.40;;;;;;9167166;19;20018;-70
2022/01/04 14:03:47;;;;;;;0.88;0.32;;;8.50;97.40;;;;;;9169041;19;20483;-70
2022/01/04 14:06:55;;;;;;;0.20;0.10;;;8.50;97.40;;;;;;9167665;19;20519;-71
2022/01/04 14:09:59;;;;;;;0.60;0.20;;;8.50;97.40;;;;;;9168850;19;20078;-71
2022/01/04 14:13:07;;;;;;;0.45;0.20;;;8.40;97.40;;;;;;9167022;19;20033;-71
2022/01/04 14:16:17;;;;;;;0.57;0.10;;;8.30;97.50;;;;;;9168073;19;20030;-70
2022/01/04 14:19:25;;;;;;;0.63;0.20;;;8.30;97.30;;;;;;9167677;19;20038;-70
2022/01/04 14:22:31;;;;;;;1.00;0.25;;;8.20;97.30;;;;;;9166866;19;20019;-71
2022/01/04 14:25:37;;;;;;;2.10;0.35;;;8.20;97.30;;;;;;9169243;19;20051;-70
2022/01/04 14:28:48;;;;;;;0.10;0.08;;;8.10;97.20;;;;;;9168193;19;20681;-71
2022/01/04 14:31:53;;;;;;;0.65;0.30;;;8.10;97.30;;;;;;9166460;19;20495;-71
2022/01/04 14:35:03;;;;;;;1.38;0.20;;;8.00;97.30;;;;;;9166100;19;20629;-71
2022/01/04 14:38:09;;;;;;;1.30;0.45;;;8.00;97.30;;;;;;9167787;19;20022;-70
2022/01/04 14:41:14;;;;;;;1.05;0.38;;;8.00;97.40;;;;;;9167117;19;20027;-70
2022/01/04 14:44:24;;;;;;;1.05;0.20;;;8.00;97.40;;;;;;9164025;19;20026;-70
2022/01/04 14:47:29;;;;;;;0.70;0.25;;;8.00;97.40;;;;;;9162478;19;20018;-70
2022/01/04 14:50:34;;;;;;;1.25;0.30;;;8.00;97.30;;;;;;9164743;19;20022;-70
2022/01/04 14:53:39;;;;;;;2.50;0.30;;;8.00;97.30;;;;;;9170050;19;20022;-70
2022/01/04 14:56:45;;;;;;;0.60;0.20;;;7.90;97.30;;;;;;9171786;19;20028;-71
2022/01/04 14:59:53;;;;;;;1.58;0.55;;;7.90;97.30;;;;;;9174025;19;20375;-69
2022/01/04 15:02:58;;;;;;;1.27;0.80;;;7.90;97.20;;;;;;9172159;19;20006;-71
2022/01/04 15:06:04;;;;;;;0.40;0.40;;;7.90;97.20;;;;;;9172820;19;20019;-69
2022/01/04 15:09:09;;;;;;;0.85;0.30;;;7.90;97.20;;;;;;9175326;19;20029;-71
2022/01/04 15:12:14;;;;;;;2.10;0.75;;;7.90;97.20;;;;;;9174743;19;20018;-71
2022/01/04 15:15:23;;;;;;;0.80;0.30;;;7.80;97.20;;;;;;9175454;19;20022;-69
2022/01/04 15:18:27;;;;;;;0.60;0.20;;;7.80;97.20;;;;;;9175689;19;20015;-70
2022/01/04 15:21:33;;;;;;;0.35;0.20;;;7.80;97.20;;;;;;9173211;19;20018;-69
2022/01/04 15:24:42;;;;;;;0.57;0.13;;;7.80;97.20;;;;;;9174194;19;20364;-70
2022/01/04 15:27:53;;;;;;;0.65;0.30;;;7.80;97.20;;;;;;9174069;19;21041;-71
2022/01/04 15:31:00;;;;;;;1.55;0.40;;;7.80;97.20;;;;;;9173450;19;20070;-70
2022/01/04 15:34:05;;;;;;;0.85;0.25;;;7.80;97.20;;;;;;9171244;19;20042;-71
2022/01/04 15:37:10;;;;;;;0.95;0.25;;;7.70;97.20;;;;;;9176562;19;20017;-70
2022/01/04 15:40:16;;;;;;;1.20;0.45;;;7.80;97.20;;;;;;9182944;19;20028;-69
2022/01/04 15:43:21;;;;;;;1.10;0.60;;;7.70;97.20;;;;;;9183171;19;20023;-69
2022/01/04 15:46:29;;;;;;;1.25;0.30;;;7.70;97.20;;;;;;9183841;19;20052;-69
2022/01/04 15:49:38;;;;;;;1.50;0.28;;;7.70;97.20;;;;;;9183748;19;20019;-70
2022/01/04 15:52:43;;;;;;;1.08;0.45;;;7.70;97.20;;;;;;9180803;19;20006;-72
2022/01/04 15:55:49;;;;;;;2.20;0.50;;;7.70;97.20;;;;;;9175492;19;20021;-72
2022/01/04 15:58:54;;;;;;;0.50;0.30;;;7.70;97.20;;;;;;9181934;19;20048;-70
2022/01/04 16:02:02;;;;;;;0.63;0.30;;;7.60;97.20;;;;;;9177787;19;20378;-70
2022/01/04 16:05:09;;;;;;;0.90;0.43;;;7.60;97.20;;;;;;9180245;19;20018;-69
2022/01/04 16:08:14;;;;;;;1.17;0.65;;;7.60;97.50;;;;;;9178705;19;20023;-70
2022/01/04 16:11:19;;;;;;;1.38;0.63;;;7.60;97.20;;;;;;9179738;19;20026;-69
2022/01/04 16:14:24;;;;;;;1.45;0.52;;;7.60;97.20;;;;;;9179057;19;20014;-71
2022/01/04 16:17:39;;;;;;;1.55;0.50;;;7.60;97.20;;;;;;9178525;19;20392;-69
2022/01/04 16:24:04;;;;;;;1.17;0.30;;;7.50;97.20;;;;;;9179041;19;20015;-70
2022/01/04 16:27:14;;;;;;;3.60;0.57;;;7.50;97.20;;;;;;9176362;19;20021;-71
2022/01/04 16:30:20;;;;;;;1.38;0.50;;;7.50;97.20;;;;;;9173021;19;20041;-70
2022/01/04 16:33:29;;;;;;;0.57;0.50;;;7.50;97.20;;;;;;9171483;19;20022;-71
2022/01/04 16:36:37;;;;;;;1.55;0.50;;;7.50;97.20;;;;;;9170258;19;20360;-72
2022/01/04 16:39:42;;;;;;;0.93;0.35;;;7.50;97.30;;;;;;9171870;19;20026;-70